createdAt,value
2023-02-09T00:00:06.497Z,92.80
2023-02-09T00:02:42.316Z,99.50
2023-02-09T00:05:11.437Z,95.20
2023-02-09T00:07:41.048Z,77.20
2023-02-09T00:10:10.123Z,80.90
2023-02-09T00:12:57.622Z,50.40
2023-02-09T00:15:26.356Z,63.90
2023-02-09T00:17:54.898Z,110.50
2023-02-09T00:20:24.019Z,101.90
2023-02-09T00:22:52.967Z,88.80
2023-02-09T00:25:22.608Z,88.30
2023-02-09T00:27:51.019Z,129.30
2023-02-09T00:30:20.036Z,113.00
2023-02-09T00:32:49.006Z,111.20
2023-02-09T00:35:18.136Z,118.20
2023-02-09T00:37:47.796Z,87.90
2023-02-09T00:40:16.957Z,85.20
2023-02-09T00:42:45.567Z,93.30
2023-02-09T00:45:14.562Z,67.10
2023-02-09T00:47:43.686Z,70.00
2023-02-09T00:50:12.558Z,72.90
2023-02-09T00:52:41.456Z,71.50
2023-02-09T00:55:10.652Z,65.30
2023-02-09T00:57:41.537Z,52.10
2023-02-09T01:00:11.704Z,49.10
2023-02-09T01:02:40.629Z,75.30
2023-02-09T01:05:09.424Z,107.90
2023-02-09T01:07:37.990Z,111.10
2023-02-09T01:10:07.258Z,91.20
2023-02-09T01:12:36.571Z,78.40
2023-02-09T01:15:07.170Z,67.50
2023-02-09T01:17:39.230Z,46.30
2023-02-09T01:20:09.062Z,55.70
2023-02-09T01:22:37.990Z,53.90
2023-02-09T01:25:07.376Z,62.00
2023-02-09T01:27:37.832Z,63.40
2023-02-09T01:30:07.066Z,102.90
2023-02-09T01:32:37.106Z,66.20
2023-02-09T01:35:06.204Z,59.80
2023-02-09T01:37:35.521Z,66.40
2023-02-09T01:40:04.773Z,86.80
2023-02-09T01:42:34.132Z,74.90
2023-02-09T01:45:15.949Z,63.90
2023-02-09T01:47:47.367Z,53.30
2023-02-09T01:50:16.269Z,43.50
2023-02-09T01:52:45.217Z,41.50
2023-02-09T01:55:15.375Z,40.80
2023-02-09T01:57:48.369Z,39.30
2023-02-09T02:00:18.936Z,46.70
2023-02-09T02:02:56.820Z,38.20
2023-02-09T02:05:25.620Z,45.30
2023-02-09T02:08:08.735Z,43.70
2023-02-09T02:10:36.749Z,50.20
2023-02-09T02:13:04.836Z,51.60
2023-02-09T02:16:07.370Z,48.20
2023-02-09T02:18:48.275Z,43.80
2023-02-09T02:21:36.651Z,37.60
2023-02-09T02:24:35.376Z,43.90
2023-02-09T02:27:13.983Z,52.80
2023-02-09T02:30:06.767Z,81.80
2023-02-09T02:32:47.141Z,63.70
2023-02-09T02:35:38.191Z,59.90
2023-02-09T02:38:33.342Z,99.70
2023-02-09T02:41:14.852Z,88.00
2023-02-09T02:43:55.350Z,56.00
2023-02-09T02:46:28.370Z,85.00
2023-02-09T02:49:08.666Z,90.00
2023-02-09T02:51:39.811Z,62.80
2023-02-09T02:54:19.996Z,52.60
2023-02-09T02:56:51.357Z,53.20
2023-02-09T02:59:22.661Z,55.00
2023-02-09T03:01:57.767Z,53.80
2023-02-09T03:04:27.419Z,54.10
2023-02-09T03:06:56.332Z,69.20
2023-02-09T03:09:25.298Z,81.60
2023-02-09T03:12:33.659Z,81.30
2023-02-09T03:15:05.479Z,73.30
2023-02-09T03:18:04.673Z,86.20
2023-02-09T03:20:44.356Z,63.80
2023-02-09T03:23:31.171Z,75.60
2023-02-09T03:26:04.060Z,93.20
2023-02-09T03:28:35.558Z,102.30
2023-02-09T03:31:04.609Z,100.60
2023-02-09T03:33:34.640Z,93.10
2023-02-09T03:36:03.641Z,103.10
2023-02-09T03:38:32.427Z,76.60
2023-02-09T03:41:01.162Z,74.40
2023-02-09T03:43:48.387Z,69.70
2023-02-09T03:46:17.071Z,55.30
2023-02-09T03:48:45.773Z,64.80
2023-02-09T03:51:14.332Z,68.50
2023-02-09T03:53:42.956Z,65.00
2023-02-09T03:56:11.932Z,68.80
2023-02-09T03:58:40.769Z,81.20
2023-02-09T04:01:10.675Z,109.00
2023-02-09T04:03:40.261Z,82.40
2023-02-09T04:06:10.272Z,90.70
2023-02-09T04:08:39.057Z,65.50
2023-02-09T04:11:10.328Z,79.10
2023-02-09T04:13:40.028Z,96.50
2023-02-09T04:16:09.187Z,91.60
2023-02-09T04:18:38.480Z,68.50
2023-02-09T04:21:07.548Z,66.60
2023-02-09T04:23:36.838Z,81.30
2023-02-09T04:26:05.415Z,75.60
2023-02-09T04:28:34.244Z,87.60
2023-02-09T04:31:03.118Z,165.00
2023-02-09T04:33:33.064Z,225.70
2023-02-09T04:36:01.876Z,154.90
2023-02-09T04:38:30.905Z,112.80
2023-02-09T04:41:00.399Z,117.60
2023-02-09T04:43:29.461Z,115.70
2023-02-09T04:45:58.408Z,118.60
2023-02-09T04:48:27.935Z,86.40
2023-02-09T04:50:56.793Z,68.30
2023-02-09T04:53:25.902Z,58.00
2023-02-09T04:55:54.533Z,69.40
2023-02-09T04:58:42.933Z,57.50
2023-02-09T05:01:13.123Z,50.40
2023-02-09T05:03:43.048Z,75.90
2023-02-09T05:06:11.638Z,86.10
2023-02-09T05:08:40.295Z,123.90
2023-02-09T05:11:09.297Z,129.00
2023-02-09T05:13:38.466Z,108.30
2023-02-09T05:16:08.470Z,109.50
2023-02-09T05:18:37.409Z,91.30
2023-02-09T05:21:06.066Z,95.30
2023-02-09T05:23:35.920Z,75.60
2023-02-09T05:26:04.714Z,89.80
2023-02-09T05:28:33.470Z,110.70
2023-02-09T05:31:02.562Z,102.50
2023-02-09T05:33:31.041Z,98.50
2023-02-09T05:35:59.663Z,110.60
2023-02-09T05:38:28.275Z,98.10
2023-02-09T05:40:56.937Z,82.20
2023-02-09T05:43:25.418Z,71.90
2023-02-09T05:45:54.559Z,58.30
2023-02-09T05:48:23.313Z,71.50
2023-02-09T05:50:52.210Z,72.90
2023-02-09T05:53:20.944Z,72.30
2023-02-09T05:55:51.166Z,73.10
2023-02-09T05:58:20.452Z,102.60
2023-02-09T06:00:50.185Z,100.20
2023-02-09T06:03:19.058Z,101.30
2023-02-09T06:05:48.483Z,154.90
2023-02-09T06:08:17.747Z,166.60
2023-02-09T06:10:48.513Z,149.50
2023-02-09T06:13:17.648Z,102.20
2023-02-09T06:15:46.276Z,103.60
2023-02-09T06:18:15.065Z,109.40
2023-02-09T06:20:44.427Z,116.80
2023-02-09T06:23:14.496Z,95.00
2023-02-09T06:25:43.458Z,92.00
2023-02-09T06:28:15.421Z,81.00
2023-02-09T06:30:50.111Z,93.40
2023-02-09T06:33:22.884Z,114.80
2023-02-09T06:35:57.224Z,102.90
2023-02-09T06:38:26.783Z,108.00
2023-02-09T06:40:55.799Z,136.80
2023-02-09T06:43:25.679Z,164.80
2023-02-09T06:45:57.922Z,156.90
2023-02-09T06:48:26.737Z,108.90
2023-02-09T06:50:56.007Z,81.70
2023-02-09T06:53:24.668Z,81.50
2023-02-09T06:55:53.329Z,71.70
2023-02-09T06:58:23.610Z,76.70
2023-02-09T07:00:52.238Z,67.50
2023-02-09T07:03:21.242Z,72.60
2023-02-09T07:05:50.085Z,88.70
2023-02-09T07:08:18.859Z,127.80
2023-02-09T07:10:48.904Z,122.60
2023-02-09T07:13:17.761Z,109.60
2023-02-09T07:15:55.066Z,74.20
2023-02-09T07:18:24.758Z,66.50
2023-02-09T07:20:55.421Z,77.50
2023-02-09T07:23:24.430Z,75.70
2023-02-09T07:25:53.518Z,76.50
2023-02-09T07:28:22.346Z,71.70
2023-02-09T07:30:52.738Z,87.70
2023-02-09T07:33:21.800Z,83.50
2023-02-09T07:35:50.435Z,101.30
2023-02-09T07:38:23.799Z,93.90
2023-02-09T07:40:52.360Z,103.40
2023-02-09T07:43:21.341Z,94.50
2023-02-09T07:45:49.950Z,131.80
2023-02-09T07:48:18.637Z,108.70
2023-02-09T07:50:50.935Z,81.20
2023-02-09T07:53:20.948Z,92.80
2023-02-09T07:55:50.050Z,77.50
2023-02-09T07:58:20.277Z,60.50
2023-02-09T08:00:49.941Z,64.90
2023-02-09T08:03:20.075Z,61.80
2023-02-09T08:05:56.294Z,70.20
2023-02-09T08:08:26.181Z,94.40
2023-02-09T08:10:55.078Z,74.80
2023-02-09T08:13:24.488Z,120.60
2023-02-09T08:15:59.010Z,125.00
2023-02-09T08:18:40.107Z,140.40
2023-02-09T08:21:10.433Z,166.30
2023-02-09T08:23:40.460Z,160.50
2023-02-09T08:26:12.104Z,197.20
2023-02-09T08:28:45.676Z,229.50
2023-02-09T08:31:16.179Z,191.70
2023-02-09T08:33:48.096Z,163.40
2023-02-09T08:36:17.461Z,193.40
2023-02-09T08:38:46.061Z,255.70
2023-02-09T08:41:15.788Z,220.80
2023-02-09T08:43:49.639Z,177.70
2023-02-09T08:46:19.550Z,207.70
2023-02-09T08:48:49.441Z,302.50
2023-02-09T08:51:18.529Z,217.10
2023-02-09T08:53:52.673Z,217.20
2023-02-09T08:56:22.242Z,248.20
2023-02-09T08:58:51.870Z,173.60
2023-02-09T09:01:21.480Z,178.20
2023-02-09T09:03:50.538Z,212.20
2023-02-09T09:06:19.548Z,175.20
2023-02-09T09:08:48.197Z,152.50
2023-02-09T09:11:17.565Z,129.80
2023-02-09T09:13:46.783Z,203.90
2023-02-09T09:16:18.445Z,317.70
2023-02-09T09:18:48.055Z,369.30
2023-02-09T09:21:18.134Z,427.30
2023-02-09T09:23:47.158Z,306.50
2023-02-09T09:26:16.743Z,314.50
2023-02-09T09:28:45.217Z,391.50
2023-02-09T09:31:16.792Z,278.80
2023-02-09T09:33:45.914Z,284.10
2023-02-09T09:36:15.068Z,174.10
2023-02-09T09:38:43.985Z,246.40
2023-02-09T09:41:25.122Z,139.30
2023-02-09T09:43:54.029Z,165.90
2023-02-09T09:46:33.926Z,104.10
2023-02-09T09:49:02.590Z,87.20
2023-02-09T09:51:45.440Z,73.70
2023-02-09T09:54:22.538Z,82.20
2023-02-09T09:56:52.978Z,131.50
2023-02-09T09:59:25.844Z,72.20
2023-02-09T10:01:54.763Z,131.50
2023-02-09T10:04:23.996Z,99.20
2023-02-09T10:07:02.306Z,96.60
2023-02-09T10:09:51.281Z,184.30
2023-02-09T10:12:25.501Z,95.00
2023-02-09T10:14:54.821Z,213.50
2023-02-09T10:17:24.446Z,116.00
2023-02-09T10:20:08.879Z,82.10
2023-02-09T10:22:38.909Z,56.50
2023-02-09T10:25:53.410Z,56.30
2023-02-09T10:28:25.420Z,51.20
2023-02-09T10:30:58.906Z,43.40
2023-02-09T10:33:29.980Z,44.20
2023-02-09T10:36:51.423Z,41.50
2023-02-09T10:39:23.464Z,37.00
2023-02-09T10:41:54.566Z,50.00
2023-02-09T10:44:29.569Z,52.10
2023-02-09T10:47:25.780Z,53.30
2023-02-09T10:50:02.935Z,63.00
2023-02-09T10:52:37.647Z,35.80
2023-02-09T10:55:17.850Z,47.00
2023-02-09T10:57:48.188Z,46.80
2023-02-09T11:00:18.193Z,33.60
2023-02-09T11:02:57.273Z,42.60
2023-02-09T11:05:29.572Z,41.40
2023-02-09T11:08:13.695Z,46.50
2023-02-09T11:10:50.398Z,74.70
2023-02-09T11:13:25.885Z,59.70
2023-02-09T11:16:15.885Z,44.90
2023-02-09T11:18:49.978Z,37.10
2023-02-09T11:21:33.047Z,62.40
2023-02-09T11:24:26.330Z,45.60
2023-02-09T11:29:42.102Z,46.80
2023-02-09T11:32:20.978Z,40.10
2023-02-09T11:34:50.122Z,39.40
2023-02-09T11:37:37.434Z,38.30
2023-02-09T11:40:15.797Z,37.10
2023-02-09T11:42:58.238Z,44.30
2023-02-09T11:45:30.388Z,37.30
2023-02-09T11:48:26.341Z,35.60
2023-02-09T11:51:00.858Z,30.50
2023-02-09T11:53:41.919Z,36.40
2023-02-09T11:56:15.380Z,63.90
2023-02-09T11:59:06.386Z,64.40
2023-02-09T12:01:38.781Z,37.60
2023-02-09T12:04:20.075Z,39.50
2023-02-09T12:06:51.399Z,45.60
2023-02-09T12:09:42.328Z,44.40
2023-02-09T12:12:20.208Z,53.30
2023-02-09T12:15:01.413Z,37.90
2023-02-09T12:17:51.925Z,41.80
2023-02-09T12:20:36.678Z,32.90
2023-02-09T12:23:15.017Z,36.10
2023-02-09T12:25:51.510Z,33.00
2023-02-09T12:28:29.863Z,30.20
2023-02-09T12:30:58.756Z,31.30
2023-02-09T12:33:30.108Z,31.10
2023-02-09T12:36:10.380Z,35.50
2023-02-09T12:38:56.821Z,37.50
2023-02-09T12:41:34.164Z,37.40
2023-02-09T12:44:12.156Z,34.80
2023-02-09T12:46:53.124Z,37.00
2023-02-09T12:49:28.654Z,33.40
2023-02-09T12:52:00.602Z,30.50
2023-02-09T12:54:41.639Z,30.30
2023-02-09T12:57:16.819Z,52.00
2023-02-09T12:59:55.488Z,69.50
2023-02-09T13:02:25.446Z,65.60
2023-02-09T13:04:56.739Z,40.00
2023-02-09T13:07:54.612Z,34.50
2023-02-09T13:10:38.248Z,32.00
2023-02-09T13:13:06.810Z,27.70
2023-02-09T13:15:48.105Z,29.10
2023-02-09T13:18:20.419Z,33.60
2023-02-09T13:21:04.660Z,27.70
2023-02-09T13:23:49.374Z,35.50
2023-02-09T13:26:19.460Z,33.40
2023-02-09T13:28:47.899Z,57.90
2023-02-09T13:31:30.617Z,34.60
2023-02-09T13:34:02.631Z,34.50
2023-02-09T13:36:42.831Z,29.80
2023-02-09T13:39:21.443Z,33.80
2023-02-09T13:41:53.912Z,34.20
2023-02-09T13:44:27.937Z,33.50
2023-02-09T13:47:01.307Z,73.80
2023-02-09T13:52:16.134Z,59.60
2023-02-09T13:54:45.414Z,38.00
2023-02-09T13:57:17.093Z,34.10
2023-02-09T13:59:45.831Z,31.30
2023-02-09T14:02:23.031Z,32.80
2023-02-09T14:04:55.013Z,55.20
2023-02-09T14:07:24.975Z,58.90
2023-02-09T14:10:01.701Z,60.70
2023-02-09T14:12:52.180Z,35.20
2023-02-09T14:15:42.952Z,31.80
2023-02-09T14:18:24.713Z,37.70
2023-02-09T14:21:03.390Z,51.50
2023-02-09T14:23:35.442Z,39.50
2023-02-09T14:26:15.498Z,41.30
2023-02-09T14:29:05.662Z,68.30
2023-02-09T14:31:34.668Z,44.30
2023-02-09T14:34:03.230Z,42.80
2023-02-09T14:36:33.775Z,38.50
2023-02-09T14:39:22.024Z,35.10
2023-02-09T14:42:10.883Z,30.80
2023-02-09T14:44:51.584Z,38.50
2023-02-09T14:47:31.022Z,35.50
2023-02-09T14:49:59.889Z,34.00
2023-02-09T14:52:31.595Z,35.10
2023-02-09T14:55:04.825Z,40.70
2023-02-09T14:57:36.339Z,38.60
2023-02-09T15:00:15.631Z,39.00
2023-02-09T15:02:44.850Z,35.60
2023-02-09T15:05:14.028Z,40.20
2023-02-09T15:07:50.574Z,42.70
2023-02-09T15:10:28.914Z,56.30
2023-02-09T15:12:58.629Z,65.90
2023-02-09T15:15:27.519Z,103.40
2023-02-09T15:17:58.605Z,109.60
2023-02-09T15:20:28.749Z,81.40
2023-02-09T15:22:57.263Z,51.60
2023-02-09T15:25:26.174Z,42.40
2023-02-09T15:27:59.257Z,41.90
2023-02-09T15:30:32.288Z,45.70
2023-02-09T15:33:01.298Z,48.50
2023-02-09T15:35:30.031Z,49.90
2023-02-09T15:37:59.822Z,57.70
2023-02-09T15:40:49.795Z,48.90
2023-02-09T15:43:39.279Z,53.50
2023-02-09T15:48:42.569Z,58.30
2023-02-09T15:51:11.228Z,66.70
2023-02-09T15:53:40.286Z,52.20
2023-02-09T15:56:09.456Z,48.80
2023-02-09T15:58:45.148Z,60.60
2023-02-09T16:01:16.906Z,69.40
2023-02-09T16:03:45.870Z,69.90
2023-02-09T16:06:24.975Z,68.90
2023-02-09T16:08:53.960Z,63.50
2023-02-09T16:11:27.417Z,71.60
2023-02-09T16:16:27.945Z,69.60
2023-02-09T16:18:56.533Z,66.20
2023-02-09T16:21:28.452Z,63.20
2023-02-09T16:23:59.276Z,71.10
2023-02-09T16:26:28.674Z,43.00
2023-02-09T16:28:57.412Z,59.00
2023-02-09T16:31:26.494Z,48.70
2023-02-09T16:33:55.792Z,42.00
2023-02-09T16:36:25.187Z,56.20
2023-02-09T16:38:54.814Z,64.10
2023-02-09T16:41:42.733Z,61.20
2023-02-09T16:44:20.266Z,39.20
2023-02-09T16:46:51.084Z,45.70
2023-02-09T16:49:40.452Z,33.30
2023-02-09T16:52:22.047Z,69.80
2023-02-09T16:54:53.548Z,95.80
2023-02-09T16:57:23.600Z,191.90
2023-02-09T16:59:52.798Z,222.90
2023-02-09T17:02:37.078Z,99.20
2023-02-09T17:05:22.109Z,69.70
2023-02-09T17:07:55.163Z,59.50
2023-02-09T17:10:26.492Z,49.30
2023-02-09T17:12:55.108Z,54.70
2023-02-09T17:15:30.454Z,46.20
2023-02-09T17:18:02.707Z,41.40
2023-02-09T17:20:37.585Z,36.00
2023-02-09T17:23:06.170Z,50.60
2023-02-09T17:25:36.404Z,68.40
2023-02-09T17:28:05.879Z,53.00
2023-02-09T17:30:36.616Z,64.60
2023-02-09T17:33:07.605Z,42.80
2023-02-09T17:38:31.514Z,96.40
2023-02-09T17:41:02.637Z,95.00
2023-02-09T17:43:31.922Z,115.10
2023-02-09T17:46:01.393Z,85.20
2023-02-09T17:48:30.424Z,94.20
2023-02-09T17:51:00.776Z,63.60
2023-02-09T17:53:32.808Z,71.50
2023-02-09T17:56:02.803Z,98.60
2023-02-09T17:58:31.739Z,96.00
2023-02-09T18:01:01.190Z,95.20
2023-02-09T18:03:30.679Z,89.50
2023-02-09T18:06:01.957Z,117.50
2023-02-09T18:08:31.680Z,84.30
2023-02-09T18:11:01.636Z,60.80
2023-02-09T18:13:30.637Z,38.50
2023-02-09T18:16:03.371Z,77.10
2023-02-09T18:18:33.092Z,48.90
2023-02-09T18:21:02.111Z,35.50
2023-02-09T18:23:31.199Z,57.80
2023-02-09T18:25:59.837Z,87.00
2023-02-09T18:28:29.022Z,49.10
2023-02-09T18:30:58.245Z,42.60
2023-02-09T18:33:27.595Z,77.10
2023-02-09T18:35:56.348Z,62.30
2023-02-09T18:38:25.292Z,51.00
2023-02-09T18:40:54.226Z,36.00
2023-02-09T18:43:23.855Z,57.40
2023-02-09T18:45:53.082Z,77.50
2023-02-09T18:48:22.829Z,53.90
2023-02-09T18:50:51.734Z,34.60
2023-02-09T18:53:22.622Z,43.50
2023-02-09T18:55:52.569Z,26.60
2023-02-09T18:58:21.446Z,32.90
2023-02-09T19:00:50.525Z,34.70
2023-02-09T19:03:20.394Z,42.00
2023-02-09T19:05:49.444Z,46.10
2023-02-09T19:08:18.471Z,42.60
2023-02-09T19:10:47.709Z,50.30
2023-02-09T19:13:16.609Z,53.70
2023-02-09T19:15:46.329Z,56.70
2023-02-09T19:18:20.449Z,56.50
2023-02-09T19:20:49.490Z,57.10
2023-02-09T19:23:18.230Z,60.50
2023-02-09T19:25:47.996Z,59.70
2023-02-09T19:28:17.109Z,64.80
2023-02-09T19:30:46.400Z,64.10
2023-02-09T19:33:15.666Z,63.10
2023-02-09T19:35:45.623Z,68.30
2023-02-09T19:38:14.990Z,73.40
2023-02-09T19:40:44.146Z,62.50
2023-02-09T19:43:13.562Z,63.40
2023-02-09T19:45:42.345Z,64.40
2023-02-09T19:48:11.502Z,57.30
2023-02-09T19:50:40.274Z,44.90
2023-02-09T19:53:09.411Z,53.60
2023-02-09T19:55:39.364Z,41.90
2023-02-09T19:58:08.496Z,36.30
2023-02-09T20:00:38.458Z,45.50
2023-02-09T20:03:07.488Z,42.80
2023-02-09T20:05:39.900Z,39.00
2023-02-09T20:08:09.808Z,35.30
2023-02-09T20:10:39.033Z,40.70
2023-02-09T20:13:08.728Z,34.40
2023-02-09T20:15:42.418Z,30.40
2023-02-09T20:18:13.479Z,41.20
2023-02-09T20:20:44.889Z,31.50
2023-02-09T20:23:15.852Z,35.50
2023-02-09T20:25:44.907Z,38.30
2023-02-09T20:28:13.752Z,42.50
2023-02-09T20:30:46.189Z,40.90
2023-02-09T20:33:17.597Z,41.60
2023-02-09T20:35:46.413Z,48.10
2023-02-09T20:38:17.150Z,40.30
2023-02-09T20:40:46.074Z,43.60
2023-02-09T20:43:34.181Z,43.50
2023-02-09T20:46:26.885Z,43.00
2023-02-09T20:48:55.623Z,41.40
2023-02-09T20:51:25.797Z,43.30
2023-02-09T20:53:54.685Z,41.00
2023-02-09T20:56:24.034Z,47.10
2023-02-09T20:58:52.999Z,46.90
2023-02-09T21:01:23.515Z,42.70
2023-02-09T21:03:56.957Z,45.90
2023-02-09T21:06:26.726Z,128.20
2023-02-09T21:08:55.792Z,48.60
2023-02-09T21:11:29.204Z,47.40
2023-02-09T21:13:58.789Z,45.80
2023-02-09T21:16:28.219Z,52.60
2023-02-09T21:18:57.859Z,48.40
2023-02-09T21:21:27.643Z,49.50
2023-02-09T21:23:56.945Z,58.90
2023-02-09T21:26:25.720Z,50.90
2023-02-09T21:28:56.370Z,62.30
2023-02-09T21:31:26.711Z,55.60
2023-02-09T21:33:56.689Z,54.00
2023-02-09T21:36:25.722Z,53.70
2023-02-09T21:38:55.185Z,240.60
2023-02-09T21:41:43.817Z,120.60
2023-02-09T21:44:14.104Z,90.40
2023-02-09T21:46:43.005Z,94.20
2023-02-09T21:49:12.868Z,74.20
2023-02-09T21:51:42.430Z,62.10
2023-02-09T21:54:15.441Z,69.70
2023-02-09T21:56:44.745Z,50.20
2023-02-09T21:59:13.381Z,53.70
2023-02-09T22:01:43.415Z,54.30
2023-02-09T22:04:11.898Z,50.60
2023-02-09T22:06:41.982Z,85.60
2023-02-09T22:09:10.765Z,89.50
2023-02-09T22:11:40.465Z,80.00
2023-02-09T22:14:09.489Z,82.50
2023-02-09T22:16:38.358Z,69.50
2023-02-09T22:19:07.489Z,62.90
2023-02-09T22:21:36.327Z,64.90
2023-02-09T22:24:05.477Z,45.80
2023-02-09T22:26:35.276Z,51.70
2023-02-09T22:29:03.974Z,58.90
2023-02-09T22:31:32.874Z,47.40
2023-02-09T22:34:01.852Z,53.00
2023-02-09T22:36:31.079Z,50.50
2023-02-09T22:39:01.662Z,58.40
2023-02-09T22:41:30.700Z,55.20
2023-02-09T22:44:01.922Z,48.50
2023-02-09T22:46:32.920Z,51.90
2023-02-09T22:49:05.800Z,47.70
2023-02-09T22:51:35.035Z,50.00
2023-02-09T22:54:04.443Z,51.20
2023-02-09T22:56:33.558Z,48.70
2023-02-09T22:59:02.428Z,49.40
2023-02-09T23:01:31.262Z,45.90
2023-02-09T23:04:00.317Z,52.90
2023-02-09T23:06:30.008Z,51.50
2023-02-09T23:09:00.951Z,48.50
2023-02-09T23:11:30.333Z,46.90
2023-02-09T23:14:14.539Z,52.20
2023-02-09T23:16:45.314Z,53.60
2023-02-09T23:19:19.540Z,48.90
2023-02-09T23:21:49.425Z,47.30
2023-02-09T23:24:21.862Z,56.30
2023-02-09T23:26:51.132Z,56.50
2023-02-09T23:29:19.685Z,56.80
2023-02-09T23:31:48.517Z,64.20
2023-02-09T23:34:18.915Z,54.70
2023-02-09T23:36:47.601Z,60.40
2023-02-09T23:39:18.972Z,103.50
2023-02-09T23:41:48.123Z,43.70
2023-02-09T23:44:16.665Z,61.80
2023-02-09T23:46:45.657Z,68.40
2023-02-09T23:49:14.538Z,64.60
2023-02-09T23:51:44.314Z,55.60
2023-02-09T23:54:12.740Z,60.50
2023-02-09T23:56:46.471Z,62.70
2023-02-09T23:59:15.590Z,61.00
